sensor_id;sensor_type;location;lat;lon;timestamp;pressure;altitude;pressure_sealevel;temperature;humidity
23677;BME280;31493;49.058;12.190;2023-08-08T00:01:57;96235.84;;;10.01;100.00
23677;BME280;31493;49.058;12.190;2023-08-08T00:04:24;96252.22;;;10.01;100.00
23677;BME280;31493;49.058;12.190;2023-08-08T00:06:53;96246.09;;;10.15;100.00
23677;BME280;31493;49.058;12.190;2023-08-08T00:09:19;96225.91;;;10.08;100.00
23677;BME280;31493;49.058;12.190;2023-08-08T00:11:47;96236.78;;;10.13;100.00
23677;BME280;31493;49.058;12.190;2023-08-08T00:14:14;96236.03;;;10.11;100.00
23677;BME280;31493;49.058;12.190;2023-08-08T00:16:41;96234.50;;;10.21;100.00
23677;BME280;31493;49.058;12.190;2023-08-08T00:19:08;96236.78;;;10.13;100.00
23677;BME280;31493;49.058;12.190;2023-08-08T00:21:35;96238.03;;;10.20;100.00
23677;BME280;31493;49.058;12.190;2023-08-08T00:24:04;96232.03;;;10.19;100.00
23677;BME280;31493;49.058;12.190;2023-08-08T00:26:31;96231.78;;;10.35;100.00
23677;BME280;31493;49.058;12.190;2023-08-08T00:28:58;96227.38;;;10.12;100.00
23677;BME280;31493;49.058;12.190;2023-08-08T00:31:25;96225.50;;;10.14;100.00
23677;BME280;31493;49.058;12.190;2023-08-08T00:33:52;96230.66;;;10.14;100.00
23677;BME280;31493;49.058;12.190;2023-08-08T00:38:47;96222.69;;;10.04;100.00
23677;BME280;31493;49.058;12.190;2023-08-08T00:41:16;96218.97;;;10.08;100.00
23677;BME280;31493;49.058;12.190;2023-08-08T00:43:43;96213.88;;;10.07;100.00
23677;BME280;31493;49.058;12.190;2023-08-08T00:46:11;96221.78;;;10.05;100.00
23677;BME280;31493;49.058;12.190;2023-08-08T00:48:38;96221.13;;;10.14;100.00
23677;BME280;31493;49.058;12.190;2023-08-08T00:51:05;96218.13;;;10.08;100.00
23677;BME280;31493;49.058;12.190;2023-08-08T00:53:32;96226.72;;;9.95;100.00
23677;BME280;31493;49.058;12.190;2023-08-08T00:55:59;96227.44;;;9.97;100.00
23677;BME280;31493;49.058;12.190;2023-08-08T00:58:28;96219.59;;;9.99;100.00
23677;BME280;31493;49.058;12.190;2023-08-08T01:00:55;96216.47;;;9.94;100.00
23677;BME280;31493;49.058;12.190;2023-08-08T01:03:25;96210.06;;;9.99;100.00
23677;BME280;31493;49.058;12.190;2023-08-08T01:05:58;96211.28;;;10.07;100.00
23677;BME280;31493;49.058;12.190;2023-08-08T01:08:31;96221.03;;;10.03;100.00
23677;BME280;31493;49.058;12.190;2023-08-08T01:11:00;96221.25;;;10.00;100.00
23677;BME280;31493;49.058;12.190;2023-08-08T01:13:30;96226.53;;;10.11;100.00
23677;BME280;31493;49.058;12.190;2023-08-08T01:15:58;96214.31;;;10.00;100.00
23677;BME280;31493;49.058;12.190;2023-08-08T01:18:27;96221.66;;;10.19;100.00
23677;BME280;31493;49.058;12.190;2023-08-08T01:20:54;96207.25;;;10.15;100.00
23677;BME280;31493;49.058;12.190;2023-08-08T01:23:26;96212.13;;;10.07;100.00
23677;BME280;31493;49.058;12.190;2023-08-08T01:25:57;96199.56;;;10.14;100.00
23677;BME280;31493;49.058;12.190;2023-08-08T01:28:25;96194.59;;;10.11;100.00
23677;BME280;31493;49.058;12.190;2023-08-08T01:30:52;96195.34;;;10.13;100.00
23677;BME280;31493;49.058;12.190;2023-08-08T01:33:19;96208.41;;;10.11;100.00
23677;BME280;31493;49.058;12.190;2023-08-08T01:35:50;96216.88;;;10.26;100.00
23677;BME280;31493;49.058;12.190;2023-08-08T01:38:23;96217.72;;;10.26;100.00
23677;BME280;31493;49.058;12.190;2023-08-08T01:40:55;96213.59;;;10.24;100.00
23677;BME280;31493;49.058;12.190;2023-08-08T01:43:24;96212.41;;;10.28;100.00
23677;BME280;31493;49.058;12.190;2023-08-08T01:45:52;96203.94;;;10.13;100.00
23677;BME280;31493;49.058;12.190;2023-08-08T01:48:20;96209.22;;;10.24;100.00
23677;BME280;31493;49.058;12.190;2023-08-08T01:50:47;96197.69;;;10.16;100.00
23677;BME280;31493;49.058;12.190;2023-08-08T01:53:14;96207.56;;;10.23;100.00
23677;BME280;31493;49.058;12.190;2023-08-08T01:55:41;96197.28;;;10.22;100.00
23677;BME280;31493;49.058;12.190;2023-08-08T01:58:08;96204.34;;;10.20;100.00
23677;BME280;31493;49.058;12.190;2023-08-08T02:00:36;96197.81;;;10.27;100.00
23677;BME280;31493;49.058;12.190;2023-08-08T02:03:04;96195.22;;;10.14;100.00
23677;BME280;31493;49.058;12.190;2023-08-08T02:05:31;96196.88;;;10.15;100.00
23677;BME280;31493;49.058;12.190;2023-08-08T02:07:58;96196.69;;;10.18;100.00
23677;BME280;31493;49.058;12.190;2023-08-08T02:10:25;96194.09;;;10.18;100.00
23677;BME280;31493;49.058;12.190;2023-08-08T02:12:52;96196.88;;;10.15;100.00
23677;BME280;31493;49.058;12.190;2023-08-08T02:15:19;96193.97;;;10.20;100.00
23677;BME280;31493;49.058;12.190;2023-08-08T02:17:49;96198.75;;;10.26;100.00
23677;BME280;31493;49.058;12.190;2023-08-08T02:20:16;96193.16;;;10.19;100.00
23677;BME280;31493;49.058;12.190;2023-08-08T02:22:44;96197.91;;;10.25;100.00
23677;BME280;31493;49.058;12.190;2023-08-08T02:25:11;96207.22;;;10.28;100.00
23677;BME280;31493;49.058;12.190;2023-08-08T02:27:38;96211.91;;;10.36;100.00
23677;BME280;31493;49.058;12.190;2023-08-08T02:30:06;96215.00;;;10.28;100.00
23677;BME280;31493;49.058;12.190;2023-08-08T02:32:33;96204.44;;;10.31;100.00
23677;BME280;31493;49.058;12.190;2023-08-08T02:35:01;96211.69;;;10.26;100.00
23677;BME280;31493;49.058;12.190;2023-08-08T02:37:28;96201.84;;;10.31;100.00
23677;BME280;31493;49.058;12.190;2023-08-08T02:39:56;96200.50;;;10.38;100.00
23677;BME280;31493;49.058;12.190;2023-08-08T02:42:23;96194.59;;;10.36;100.00
23677;BME280;31493;49.058;12.190;2023-08-08T02:44:50;96189.00;;;10.29;100.00
23677;BME280;31493;49.058;12.190;2023-08-08T02:47:17;96196.88;;;10.28;100.00
23677;BME280;31493;49.058;12.190;2023-08-08T02:49:44;96191.38;;;10.33;100.00
23677;BME280;31493;49.058;12.190;2023-08-08T02:52:12;96178.09;;;10.37;100.00
23677;BME280;31493;49.058;12.190;2023-08-08T02:54:39;96174.69;;;10.37;100.00
23677;BME280;31493;49.058;12.190;2023-08-08T02:57:06;96172.91;;;10.37;100.00
23677;BME280;31493;49.058;12.190;2023-08-08T02:59:36;96180.19;;;10.32;100.00
23677;BME280;31493;49.058;12.190;2023-08-08T03:02:04;96171.16;;;10.38;100.00
23677;BME280;31493;49.058;12.190;2023-08-08T03:04:31;96177.38;;;10.35;100.00
23677;BME280;31493;49.058;12.190;2023-08-08T03:06:58;96182.47;;;10.37;100.00
23677;BME280;31493;49.058;12.190;2023-08-08T03:09:28;96188.25;;;10.40;100.00
23677;BME280;31493;49.058;12.190;2023-08-08T03:11:55;96181.41;;;10.39;100.00
23677;BME280;31493;49.058;12.190;2023-08-08T03:14:22;96185.06;;;10.37;100.00
23677;BME280;31493;49.058;12.190;2023-08-08T03:16:49;96195.41;;;10.37;100.00
23677;BME280;31493;49.058;12.190;2023-08-08T03:19:16;96196.25;;;10.37;100.00
23677;BME280;31493;49.058;12.190;2023-08-08T03:21:43;96199.84;;;10.47;100.00
23677;BME280;31493;49.058;12.190;2023-08-08T03:24:10;96196.34;;;10.48;100.00
23677;BME280;31493;49.058;12.190;2023-08-08T03:26:39;96204.91;;;10.62;100.00
23677;BME280;31493;49.058;12.190;2023-08-08T03:29:06;96190.94;;;10.51;100.00
23677;BME280;31493;49.058;12.190;2023-08-08T03:31:36;96199.94;;;10.58;100.00
23677;BME280;31493;49.058;12.190;2023-08-08T03:34:02;96191.16;;;10.48;100.00
23677;BME280;31493;49.058;12.190;2023-08-08T03:36:30;96184.28;;;10.47;100.00
23677;BME280;31493;49.058;12.190;2023-08-08T03:38:57;96186.16;;;10.45;100.00
23677;BME280;31493;49.058;12.190;2023-08-08T03:41:24;96189.47;;;10.47;100.00
23677;BME280;31493;49.058;12.190;2023-08-08T03:43:52;96200.47;;;10.51;100.00
23677;BME280;31493;49.058;12.190;2023-08-08T03:46:19;96193.63;;;10.50;100.00
23677;BME280;31493;49.058;12.190;2023-08-08T03:48:46;96193.13;;;10.45;100.00
23677;BME280;31493;49.058;12.190;2023-08-08T03:51:13;96188.47;;;10.37;100.00
23677;BME280;31493;49.058;12.190;2023-08-08T03:53:40;96188.47;;;10.37;100.00
23677;BME280;31493;49.058;12.190;2023-08-08T03:56:07;96195.31;;;10.38;100.00
23677;BME280;31493;49.058;12.190;2023-08-08T03:58:34;96184.72;;;10.41;100.00
23677;BME280;31493;49.058;12.190;2023-08-08T04:01:03;96188.75;;;10.45;100.00
23677;BME280;31493;49.058;12.190;2023-08-08T04:03:30;96195.19;;;10.40;100.00
23677;BME280;31493;49.058;12.190;2023-08-08T04:05:57;96187.41;;;10.40;100.00
23677;BME280;31493;49.058;12.190;2023-08-08T04:08:24;96196.75;;;10.42;100.00
23677;BME280;31493;49.058;12.190;2023-08-08T04:10:51;96203.78;;;10.53;100.00
23677;BME280;31493;49.058;12.190;2023-08-08T04:13:18;96198.41;;;10.56;100.00
23677;BME280;31493;49.058;12.190;2023-08-08T04:15:45;96191.63;;;10.53;100.00
23677;BME280;31493;49.058;12.190;2023-08-08T04:18:13;96213.41;;;10.64;100.00
23677;BME280;31493;49.058;12.190;2023-08-08T04:20:40;96203.03;;;10.64;100.00
23677;BME280;31493;49.058;12.190;2023-08-08T04:23:07;96214.31;;;10.75;100.00
23677;BME280;31493;49.058;12.190;2023-08-08T04:25:34;96209.84;;;10.77;100.00
23677;BME280;31493;49.058;12.190;2023-08-08T04:28:01;96210.63;;;10.67;100.00
23677;BME280;31493;49.058;12.190;2023-08-08T04:30:28;96209.44;;;10.71;100.00
23677;BME280;31493;49.058;12.190;2023-08-08T04:32:55;96215.16;;;10.76;100.00
23677;BME280;31493;49.058;12.190;2023-08-08T04:35:23;96218.16;;;10.82;100.00
23677;BME280;31493;49.058;12.190;2023-08-08T04:37:51;96208.41;;;10.73;100.00
23677;BME280;31493;49.058;12.190;2023-08-08T04:40:18;96206.66;;;10.74;100.00
23677;BME280;31493;49.058;12.190;2023-08-08T04:42:45;96211.84;;;10.74;100.00
23677;BME280;31493;49.058;12.190;2023-08-08T04:45:12;96215.03;;;10.77;100.00
23677;BME280;31493;49.058;12.190;2023-08-08T04:47:39;96211.09;;;10.72;100.00
23677;BME280;31493;49.058;12.190;2023-08-08T04:50:07;96212.88;;;10.84;100.00
23677;BME280;31493;49.058;12.190;2023-08-08T04:52:35;96209.63;;;10.93;100.00
23677;BME280;31493;49.058;12.190;2023-08-08T04:55:03;96211.16;;;10.96;100.00
23677;BME280;31493;49.058;12.190;2023-08-08T04:57:30;96215.38;;;10.86;100.00
23677;BME280;31493;49.058;12.190;2023-08-08T04:59:57;96219.38;;;10.90;100.00
23677;BME280;31493;49.058;12.190;2023-08-08T05:02:27;96221.78;;;10.93;100.00
23677;BME280;31493;49.058;12.190;2023-08-08T05:04:54;96228.09;;;10.89;100.00
23677;BME280;31493;49.058;12.190;2023-08-08T05:07:21;96220.94;;;10.92;100.00
23677;BME280;31493;49.058;12.190;2023-08-08T05:09:49;96225.28;;;11.04;100.00
23677;BME280;31493;49.058;12.190;2023-08-08T05:12:16;96220.53;;;10.98;100.00
23677;BME280;31493;49.058;12.190;2023-08-08T05:14:43;96212.53;;;10.89;100.00
23677;BME280;31493;49.058;12.190;2023-08-08T05:17:10;96208.72;;;10.81;100.00
23677;BME280;31493;49.058;12.190;2023-08-08T05:19:37;96211.50;;;10.78;100.00
23677;BME280;31493;49.058;12.190;2023-08-08T05:22:05;96220.66;;;10.84;100.00
23677;BME280;31493;49.058;12.190;2023-08-08T05:24:32;96224.91;;;10.85;100.00
23677;BME280;31493;49.058;12.190;2023-08-08T05:27:00;96225.31;;;10.79;100.00
23677;BME280;31493;49.058;12.190;2023-08-08T05:29:29;96225.31;;;10.79;100.00
23677;BME280;31493;49.058;12.190;2023-08-08T05:31:56;96229.16;;;10.86;100.00
23677;BME280;31493;49.058;12.190;2023-08-08T05:34:23;96231.06;;;11.08;100.00
23677;BME280;31493;49.058;12.190;2023-08-08T05:36:51;96227.94;;;11.03;100.00
23677;BME280;31493;49.058;12.190;2023-08-08T05:39:18;96236.75;;;11.13;100.00
23677;BME280;31493;49.058;12.190;2023-08-08T05:41:45;96230.69;;;11.25;100.00
23677;BME280;31493;49.058;12.190;2023-08-08T05:44:13;96229.97;;;11.47;100.00
23677;BME280;31493;49.058;12.190;2023-08-08T05:46:40;96226.63;;;11.45;100.00
23677;BME280;31493;49.058;12.190;2023-08-08T05:49:07;96223.38;;;11.54;100.00
23677;BME280;31493;49.058;12.190;2023-08-08T05:51:34;96232.94;;;11.54;100.00
23677;BME280;31493;49.058;12.190;2023-08-08T05:54:01;96236.19;;;11.45;100.00
23677;BME280;31493;49.058;12.190;2023-08-08T05:56:34;96238.72;;;11.57;100.00
23677;BME280;31493;49.058;12.190;2023-08-08T05:59:02;96225.78;;;11.69;100.00
23677;BME280;31493;49.058;12.190;2023-08-08T06:01:31;96213.78;;;11.79;100.00
23677;BME280;31493;49.058;12.190;2023-08-08T06:03:58;96227.44;;;11.70;100.00
23677;BME280;31493;49.058;12.190;2023-08-08T06:06:25;96225.13;;;11.78;100.00
23677;BME280;31493;49.058;12.190;2023-08-08T06:08:52;96224.22;;;11.90;100.00
23677;BME280;31493;49.058;12.190;2023-08-08T06:11:19;96229.38;;;11.79;100.00
23677;BME280;31493;49.058;12.190;2023-08-08T06:13:47;96225.97;;;11.89;100.00
23677;BME280;31493;49.058;12.190;2023-08-08T06:16:14;96232.34;;;11.85;100.00
23677;BME280;31493;49.058;12.190;2023-08-08T06:18:43;96226.91;;;11.77;100.00
23677;BME280;31493;49.058;12.190;2023-08-08T06:21:10;96225.81;;;11.80;100.00
23677;BME280;31493;49.058;12.190;2023-08-08T06:23:37;96216.50;;;11.88;100.00
23677;BME280;31493;49.058;12.190;2023-08-08T06:26:04;96220.66;;;11.91;100.00
23677;BME280;31493;49.058;12.190;2023-08-08T06:28:31;96209.44;;;11.90;100.00
23677;BME280;31493;49.058;12.190;2023-08-08T06:30:58;96211.72;;;11.95;100.00
23677;BME280;31493;49.058;12.190;2023-08-08T06:33:25;96205.56;;;12.07;100.00
23677;BME280;31493;49.058;12.190;2023-08-08T06:35:55;96203.03;;;12.41;100.00
23677;BME280;31493;49.058;12.190;2023-08-08T06:38:22;96203.50;;;12.46;100.00
23677;BME280;31493;49.058;12.190;2023-08-08T06:40:49;96222.91;;;12.53;100.00
23677;BME280;31493;49.058;12.190;2023-08-08T06:43:17;96206.69;;;12.50;99.52
23677;BME280;31493;49.058;12.190;2023-08-08T06:45:44;96203.50;;;12.57;100.00
23677;BME280;31493;49.058;12.190;2023-08-08T06:48:11;96204.44;;;12.56;100.00
23677;BME280;31493;49.058;12.190;2023-08-08T06:50:38;96197.78;;;12.86;99.73
23677;BME280;31493;49.058;12.190;2023-08-08T06:53:06;96189.41;;;12.93;99.24
23677;BME280;31493;49.058;12.190;2023-08-08T06:55:33;96196.59;;;13.01;98.92
23677;BME280;31493;49.058;12.190;2023-08-08T06:58:00;96190.09;;;12.84;98.66
23677;BME280;31493;49.058;12.190;2023-08-08T07:00:27;96208.06;;;12.98;98.14
23677;BME280;31493;49.058;12.190;2023-08-08T07:02:55;96212.88;;;13.14;97.54
23677;BME280;31493;49.058;12.190;2023-08-08T07:05:22;96202.78;;;13.32;97.77
23677;BME280;31493;49.058;12.190;2023-08-08T07:07:49;96211.59;;;13.41;97.04
23677;BME280;31493;49.058;12.190;2023-08-08T07:10:18;96204.16;;;13.47;96.76
23677;BME280;31493;49.058;12.190;2023-08-08T07:12:45;96196.44;;;13.46;94.28
23677;BME280;31493;49.058;12.190;2023-08-08T07:15:12;96194.44;;;13.49;94.15
23677;BME280;31493;49.058;12.190;2023-08-08T07:17:40;96188.88;;;13.75;95.20
23677;BME280;31493;49.058;12.190;2023-08-08T07:20:07;96187.91;;;13.76;93.79
23677;BME280;31493;49.058;12.190;2023-08-08T07:22:34;96191.28;;;13.88;94.37
23677;BME280;31493;49.058;12.190;2023-08-08T07:25:01;96186.06;;;14.09;93.50
23677;BME280;31493;49.058;12.190;2023-08-08T07:27:31;96188.94;;;14.05;94.41
23677;BME280;31493;49.058;12.190;2023-08-08T07:29:58;96187.22;;;13.95;95.29
23677;BME280;31493;49.058;12.190;2023-08-08T07:32:26;96189.47;;;14.09;93.16
23677;BME280;31493;49.058;12.190;2023-08-08T07:34:53;96188.38;;;14.32;92.38
23677;BME280;31493;49.058;12.190;2023-08-08T07:37:20;96184.56;;;14.37;91.31
23677;BME280;31493;49.058;12.190;2023-08-08T07:39:50;96183.22;;;14.52;89.74
23677;BME280;31493;49.058;12.190;2023-08-08T07:42:17;96184.28;;;14.70;90.03
23677;BME280;31493;49.058;12.190;2023-08-08T07:44:46;96175.97;;;14.86;88.35
23677;BME280;31493;49.058;12.190;2023-08-08T07:47:13;96177.50;;;14.98;87.52
23677;BME280;31493;49.058;12.190;2023-08-08T07:49:40;96178.00;;;14.82;84.84
23677;BME280;31493;49.058;12.190;2023-08-08T07:52:07;96179.44;;;15.06;86.29
23677;BME280;31493;49.058;12.190;2023-08-08T07:54:34;96167.56;;;14.82;83.91
23677;BME280;31493;49.058;12.190;2023-08-08T07:57:02;96166.84;;;14.71;84.29
23677;BME280;31493;49.058;12.190;2023-08-08T07:59:29;96167.06;;;14.98;84.36
23677;BME280;31493;49.058;12.190;2023-08-08T08:01:58;96165.31;;;15.08;83.20
23677;BME280;31493;49.058;12.190;2023-08-08T08:04:25;96159.75;;;15.02;83.12
23677;BME280;31493;49.058;12.190;2023-08-08T08:06:52;96173.00;;;15.10;85.77
23677;BME280;31493;49.058;12.190;2023-08-08T08:09:19;96181.75;;;14.99;84.03
23677;BME280;31493;49.058;12.190;2023-08-08T08:11:46;96173.09;;;14.99;84.05
23677;BME280;31493;49.058;12.190;2023-08-08T08:14:15;96171.72;;;14.95;83.08
23677;BME280;31493;49.058;12.190;2023-08-08T08:16:42;96166.06;;;14.90;84.43
23677;BME280;31493;49.058;12.190;2023-08-08T08:19:11;96163.50;;;14.99;83.02
23677;BME280;31493;49.058;12.190;2023-08-08T08:21:38;96176.41;;;15.01;83.76
23677;BME280;31493;49.058;12.190;2023-08-08T08:24:05;96173.94;;;14.99;83.91
23677;BME280;31493;49.058;12.190;2023-08-08T08:26:32;96163.59;;;14.88;84.78
23677;BME280;31493;49.058;12.190;2023-08-08T08:28:59;96158.63;;;14.75;85.70
23677;BME280;31493;49.058;12.190;2023-08-08T08:31:26;96163.44;;;14.80;86.44
23677;BME280;31493;49.058;12.190;2023-08-08T08:33:54;96162.06;;;14.76;86.52
23677;BME280;31493;49.058;12.190;2023-08-08T08:36:23;96160.97;;;14.78;88.67
23677;BME280;31493;49.058;12.190;2023-08-08T08:38:51;96167.13;;;14.77;87.23
23677;BME280;31493;49.058;12.190;2023-08-08T08:41:20;96149.56;;;14.79;87.31
23677;BME280;31493;49.058;12.190;2023-08-08T08:43:51;96159.09;;;14.90;85.46
23677;BME280;31493;49.058;12.190;2023-08-08T08:46:21;96157.03;;;15.13;84.42
23677;BME280;31493;49.058;12.190;2023-08-08T08:48:49;96159.13;;;15.09;83.18
23677;BME280;31493;49.058;12.190;2023-08-08T08:51:18;96153.19;;;15.17;82.74
23677;BME280;31493;49.058;12.190;2023-08-08T08:53:46;96160.63;;;15.51;84.70
23677;BME280;31493;49.058;12.190;2023-08-08T08:56:13;96148.78;;;15.56;82.87
23677;BME280;31493;49.058;12.190;2023-08-08T08:58:42;96148.06;;;16.03;85.33
23677;BME280;31493;49.058;12.190;2023-08-08T09:01:10;96139.56;;;15.91;78.90
23677;BME280;31493;49.058;12.190;2023-08-08T09:03:37;96146.47;;;15.82;82.25
23677;BME280;31493;49.058;12.190;2023-08-08T09:06:04;96139.31;;;15.65;81.18
23677;BME280;31493;49.058;12.190;2023-08-08T09:08:32;96136.94;;;15.81;79.29
23677;BME280;31493;49.058;12.190;2023-08-08T09:11:00;96144.06;;;15.99;79.50
23677;BME280;31493;49.058;12.190;2023-08-08T09:13:35;96139.69;;;16.36;76.69
23677;BME280;31493;49.058;12.190;2023-08-08T09:16:04;96142.34;;;16.54;80.31
23677;BME280;31493;49.058;12.190;2023-08-08T09:18:31;96142.00;;;16.67;78.39
23677;BME280;31493;49.058;12.190;2023-08-08T09:20:58;96129.03;;;16.48;75.83
23677;BME280;31493;49.058;12.190;2023-08-08T09:23:25;96136.78;;;16.39;75.07
23677;BME280;31493;49.058;12.190;2023-08-08T09:25:52;96127.13;;;16.50;76.58
23677;BME280;31493;49.058;12.190;2023-08-08T09:28:21;96133.91;;;16.60;73.76
23677;BME280;31493;49.058;12.190;2023-08-08T09:30:48;96130.41;;;16.52;75.07
23677;BME280;31493;49.058;12.190;2023-08-08T09:33:17;96134.56;;;16.44;75.31
23677;BME280;31493;49.058;12.190;2023-08-08T09:35:44;96131.56;;;16.94;75.12
23677;BME280;31493;49.058;12.190;2023-08-08T09:38:11;96131.91;;;16.82;73.23
23677;BME280;31493;49.058;12.190;2023-08-08T09:40:38;96132.34;;;17.05;74.58
23677;BME280;31493;49.058;12.190;2023-08-08T09:43:07;96107.56;;;17.17;73.27
23677;BME280;31493;49.058;12.190;2023-08-08T09:45:39;96113.84;;;17.06;74.51
23677;BME280;31493;49.058;12.190;2023-08-08T09:48:07;96113.91;;;17.14;72.31
23677;BME280;31493;49.058;12.190;2023-08-08T09:50:35;96118.16;;;16.97;68.71
23677;BME280;31493;49.058;12.190;2023-08-08T09:53:02;96099.09;;;17.23;70.50
23677;BME280;31493;49.058;12.190;2023-08-08T09:55:30;96104.47;;;17.04;70.28
23677;BME280;31493;49.058;12.190;2023-08-08T09:57:58;96095.63;;;17.22;72.34
23677;BME280;31493;49.058;12.190;2023-08-08T10:00:26;96094.91;;;17.12;69.98
23677;BME280;31493;49.058;12.190;2023-08-08T10:02:55;96089.56;;;17.40;70.01
23677;BME280;31493;49.058;12.190;2023-08-08T10:05:23;96098.84;;;17.34;68.59
23677;BME280;31493;49.058;12.190;2023-08-08T10:07:50;96100.53;;;16.99;66.90
23677;BME280;31493;49.058;12.190;2023-08-08T10:10:17;96099.09;;;17.23;67.36
23677;BME280;31493;49.058;12.190;2023-08-08T10:12:46;96099.53;;;17.36;66.96
23677;BME280;31493;49.058;12.190;2023-08-08T10:15:13;96103.09;;;17.35;66.53
23677;BME280;31493;49.058;12.190;2023-08-08T10:17:41;96094.22;;;17.10;66.64
23677;BME280;31493;49.058;12.190;2023-08-08T10:20:10;96093.09;;;17.13;66.30
23677;BME280;31493;49.058;12.190;2023-08-08T10:22:42;96098.81;;;17.70;66.37
23677;BME280;31493;49.058;12.190;2023-08-08T10:25:09;96087.72;;;17.76;65.61
23677;BME280;31493;49.058;12.190;2023-08-08T10:27:43;96079.09;;;17.66;63.12
23677;BME280;31493;49.058;12.190;2023-08-08T10:30:11;96066.25;;;17.55;63.69
23677;BME280;31493;49.058;12.190;2023-08-08T10:32:40;96082.03;;;18.15;63.71
23677;BME280;31493;49.058;12.190;2023-08-08T10:35:08;96080.75;;;17.85;62.85
23677;BME280;31493;49.058;12.190;2023-08-08T10:37:37;96083.50;;;17.83;63.79
23677;BME280;31493;49.058;12.190;2023-08-08T10:40:04;96078.03;;;18.28;63.57
23677;BME280;31493;49.058;12.190;2023-08-08T10:42:41;96074.06;;;18.24;60.41
23677;BME280;31493;49.058;12.190;2023-08-08T10:45:10;96072.06;;;18.18;61.03
23677;BME280;31493;49.058;12.190;2023-08-08T10:47:39;96064.63;;;18.40;61.21
23677;BME280;31493;49.058;12.190;2023-08-08T10:50:08;96068.88;;;18.83;59.82
23677;BME280;31493;49.058;12.190;2023-08-08T10:52:56;96066.63;;;19.61;60.97
23677;BME280;31493;49.058;12.190;2023-08-08T10:55:25;96071.56;;;19.64;57.52
23677;BME280;31493;49.058;12.190;2023-08-08T10:57:54;96068.06;;;18.91;56.52
23677;BME280;31493;49.058;12.190;2023-08-08T11:00:24;96061.16;;;19.06;57.54
23677;BME280;31493;49.058;12.190;2023-08-08T11:02:53;96060.38;;;19.13;56.97
23677;BME280;31493;49.058;12.190;2023-08-08T11:05:21;96039.47;;;18.79;54.93
23677;BME280;31493;49.058;12.190;2023-08-08T11:07:49;96063.84;;;19.38;54.45
23677;BME280;31493;49.058;12.190;2023-08-08T11:10:17;96055.69;;;18.75;55.61
23677;BME280;31493;49.058;12.190;2023-08-08T11:12:54;96060.53;;;19.20;56.50
23677;BME280;31493;49.058;12.190;2023-08-08T11:15:21;96053.94;;;19.00;55.00
23677;BME280;31493;49.058;12.190;2023-08-08T11:17:49;96056.03;;;18.80;55.18
23677;BME280;31493;49.058;12.190;2023-08-08T11:20:18;96039.28;;;18.65;54.31
23677;BME280;31493;49.058;12.190;2023-08-08T11:22:45;96050.22;;;18.52;55.91
23677;BME280;31493;49.058;12.190;2023-08-08T11:25:18;96052.44;;;18.73;57.99
23677;BME280;31493;49.058;12.190;2023-08-08T11:27:49;96045.09;;;18.42;55.51
23677;BME280;31493;49.058;12.190;2023-08-08T11:30:16;96052.16;;;18.08;56.58
23677;BME280;31493;49.058;12.190;2023-08-08T11:32:43;96063.28;;;18.01;56.12
23677;BME280;31493;49.058;12.190;2023-08-08T11:35:11;96049.97;;;17.95;56.45
23677;BME280;31493;49.058;12.190;2023-08-08T11:37:39;96054.84;;;17.90;55.75
23677;BME280;31493;49.058;12.190;2023-08-08T11:40:07;96049.19;;;18.02;56.29
23677;BME280;31493;49.058;12.190;2023-08-08T11:42:36;96043.63;;;18.48;57.13
23677;BME280;31493;49.058;12.190;2023-08-08T11:45:04;96055.19;;;18.63;56.37
23677;BME280;31493;49.058;12.190;2023-08-08T11:47:32;96038.13;;;18.75;56.34
23677;BME280;31493;49.058;12.190;2023-08-08T11:50:01;96044.88;;;18.78;54.97
23677;BME280;31493;49.058;12.190;2023-08-08T11:52:29;96050.97;;;18.86;57.03
23677;BME280;31493;49.058;12.190;2023-08-08T11:54:58;96047.38;;;18.96;56.43
23677;BME280;31493;49.058;12.190;2023-08-08T11:57:25;96048.16;;;18.80;56.96
23677;BME280;31493;49.058;12.190;2023-08-08T11:59:54;96024.56;;;18.96;54.28
23677;BME280;31493;49.058;12.190;2023-08-08T12:02:22;96035.06;;;19.12;55.81
23677;BME280;31493;49.058;12.190;2023-08-08T12:04:49;96045.59;;;19.21;55.79
23677;BME280;31493;49.058;12.190;2023-08-08T12:07:17;96032.78;;;19.01;53.35
23677;BME280;31493;49.058;12.190;2023-08-08T12:09:46;96039.50;;;18.96;53.43
23677;BME280;31493;49.058;12.190;2023-08-08T12:12:13;96027.94;;;18.64;50.95
23677;BME280;31493;49.058;12.190;2023-08-08T12:14:42;96041.72;;;18.58;51.24
23677;BME280;31493;49.058;12.190;2023-08-08T12:17:11;96026.28;;;18.63;51.17
23677;BME280;31493;49.058;12.190;2023-08-08T12:19:45;96025.69;;;18.77;51.11
23677;BME280;31493;49.058;12.190;2023-08-08T12:22:12;96039.16;;;18.91;52.52
23677;BME280;31493;49.058;12.190;2023-08-08T12:24:39;96031.25;;;18.82;51.35
23677;BME280;31493;49.058;12.190;2023-08-08T12:27:06;96032.44;;;19.29;50.32
23677;BME280;31493;49.058;12.190;2023-08-08T12:29:34;96026.84;;;19.40;47.58
23677;BME280;31493;49.058;12.190;2023-08-08T12:32:01;96023.19;;;19.82;49.43
23677;BME280;31493;49.058;12.190;2023-08-08T12:34:35;96023.81;;;20.00;48.38
23677;BME280;31493;49.058;12.190;2023-08-08T12:37:02;96028.34;;;19.51;47.55
23677;BME280;31493;49.058;12.190;2023-08-08T12:39:29;96037.38;;;19.64;47.10
23677;BME280;31493;49.058;12.190;2023-08-08T12:41:56;96039.69;;;19.51;49.16
23677;BME280;31493;49.058;12.190;2023-08-08T12:44:23;96026.03;;;19.23;48.86
23677;BME280;31493;49.058;12.190;2023-08-08T12:46:50;96026.84;;;19.40;46.29
23677;BME280;31493;49.058;12.190;2023-08-08T12:49:17;96016.16;;;19.66;48.07
23677;BME280;31493;49.058;12.190;2023-08-08T12:51:46;96021.56;;;19.73;48.15